sensor_id;sensor_type;location;lat;lon;timestamp;pressure;altitude;pressure_sealevel;temperature;humidity
10145;BME280;5113;41.822;23.564;2022-11-15T00:00:26;-10975.50;;;1.49;100.00
10145;BME280;5113;41.822;23.564;2022-11-15T00:03:34;-10976.06;;;1.51;100.00
10145;BME280;5113;41.822;23.564;2022-11-15T00:06:40;-10981.13;;;1.69;100.00
10145;BME280;5113;41.822;23.564;2022-11-15T00:09:47;-10967.38;;;1.19;100.00
10145;BME280;5113;41.822;23.564;2022-11-15T00:12:53;-10959.81;;;0.92;100.00
10145;BME280;5113;41.822;23.564;2022-11-15T00:16:01;-10971.59;;;1.35;100.00
10145;BME280;5113;41.822;23.564;2022-11-15T00:19:09;-10962.47;;;1.02;100.00
10145;BME280;5113;41.822;23.564;2022-11-15T00:22:15;-10960.78;;;0.95;100.00
10145;BME280;5113;41.822;23.564;2022-11-15T00:25:22;-10965.84;;;1.14;100.00
10145;BME280;5113;41.822;23.564;2022-11-15T00:28:29;-10963.31;;;1.05;100.00
10145;BME280;5113;41.822;23.564;2022-11-15T00:31:35;-10971.03;;;1.32;100.00
10145;BME280;5113;41.822;23.564;2022-11-15T00:34:54;-10948.31;;;0.50;100.00
10145;BME280;5113;41.822;23.564;2022-11-15T00:38:00;-10943.00;;;0.31;100.00
10145;BME280;5113;41.822;23.564;2022-11-15T00:41:07;-10943.28;;;0.32;100.00
10145;BME280;5113;41.822;23.564;2022-11-15T00:44:14;-10961.50;;;0.98;100.00
10145;BME280;5113;41.822;23.564;2022-11-15T00:47:20;-10955.88;;;0.78;100.00
10145;BME280;5113;41.822;23.564;2022-11-15T00:50:28;-10954.34;;;0.72;100.00
10145;BME280;5113;41.822;23.564;2022-11-15T00:53:34;-10972.56;;;1.38;100.00
10145;BME280;5113;41.822;23.564;2022-11-15T00:56:41;-10973.69;;;1.42;100.00
10145;BME280;5113;41.822;23.564;2022-11-15T00:59:47;-10971.59;;;1.35;100.00
10145;BME280;5113;41.822;23.564;2022-11-15T01:02:54;-10965.41;;;1.12;100.00
10145;BME280;5113;41.822;23.564;2022-11-15T01:06:02;-10959.13;;;0.89;100.00
10145;BME280;5113;41.822;23.564;2022-11-15T01:09:09;-10968.50;;;1.23;100.00
10145;BME280;5113;41.822;23.564;2022-11-15T01:12:15;-10956.44;;;0.80;100.00
10145;BME280;5113;41.822;23.564;2022-11-15T01:15:22;-10939.34;;;0.18;100.00
10145;BME280;5113;41.822;23.564;2022-11-15T01:18:28;-10931.81;;;-0.10;100.00
10145;BME280;5113;41.822;23.564;2022-11-15T01:21:36;-10938.66;;;0.15;100.00
10145;BME280;5113;41.822;23.564;2022-11-15T01:24:42;-10930.97;;;-0.13;100.00
10145;BME280;5113;41.822;23.564;2022-11-15T01:27:48;-10937.25;;;0.10;100.00
10145;BME280;5113;41.822;23.564;2022-11-15T01:30:57;-10943.00;;;0.31;100.00
10145;BME280;5113;41.822;23.564;2022-11-15T01:34:03;-10959.81;;;0.92;100.00
10145;BME280;5113;41.822;23.564;2022-11-15T01:37:11;-10942.72;;;0.30;100.00
10145;BME280;5113;41.822;23.564;2022-11-15T01:40:18;-10944.13;;;0.35;100.00
10145;BME280;5113;41.822;23.564;2022-11-15T01:43:26;-10945.81;;;0.41;100.00
10145;BME280;5113;41.822;23.564;2022-11-15T01:46:34;-10961.78;;;0.99;100.00
10145;BME280;5113;41.822;23.564;2022-11-15T01:49:47;-10971.16;;;1.33;100.00
10145;BME280;5113;41.822;23.564;2022-11-15T01:52:57;-10966.81;;;1.17;100.00
10145;BME280;5113;41.822;23.564;2022-11-15T01:56:05;-10953.50;;;0.69;100.00
10145;BME280;5113;41.822;23.564;2022-11-15T01:59:12;-10951.81;;;0.63;100.00
10145;BME280;5113;41.822;23.564;2022-11-15T02:02:19;-10961.34;;;0.97;100.00
10145;BME280;5113;41.822;23.564;2022-11-15T02:05:26;-10969.63;;;1.27;100.00
10145;BME280;5113;41.822;23.564;2022-11-15T02:08:33;-10970.75;;;1.31;100.00
10145;BME280;5113;41.822;23.564;2022-11-15T02:11:40;-10965.28;;;1.12;100.00
10145;BME280;5113;41.822;23.564;2022-11-15T02:14:50;-10970.31;;;1.30;100.00
10145;BME280;5113;41.822;23.564;2022-11-15T02:18:07;-10944.25;;;0.36;100.00
10145;BME280;5113;41.822;23.564;2022-11-15T02:21:21;-10920.88;;;-0.49;100.00
10145;BME280;5113;41.822;23.564;2022-11-15T02:24:49;-10934.31;;;-0.01;100.00
10145;BME280;5113;41.822;23.564;2022-11-15T02:28:16;-10948.31;;;0.50;100.00
10145;BME280;5113;41.822;23.564;2022-11-15T02:31:39;-10921.00;;;-0.49;100.00
10145;BME280;5113;41.822;23.564;2022-11-15T02:34:57;-10929.56;;;-0.18;100.00
10145;BME280;5113;41.822;23.564;2022-11-15T02:38:15;-10948.47;;;0.51;100.00
10145;BME280;5113;41.822;23.564;2022-11-15T02:41:25;-10951.69;;;0.62;100.00
10145;BME280;5113;41.822;23.564;2022-11-15T02:44:39;-10953.50;;;0.69;100.00
10145;BME280;5113;41.822;23.564;2022-11-15T02:47:52;-10959.41;;;0.90;100.00
10145;BME280;5113;41.822;23.564;2022-11-15T02:51:01;-10952.66;;;0.66;100.00
10145;BME280;5113;41.822;23.564;2022-11-15T02:54:11;-10940.34;;;0.21;100.00
10145;BME280;5113;41.822;23.564;2022-11-15T02:57:19;-10931.25;;;-0.12;100.00
10145;BME280;5113;41.822;23.564;2022-11-15T03:00:35;-10929.28;;;-0.19;100.00
10145;BME280;5113;41.822;23.564;2022-11-15T03:03:54;-10941.88;;;0.27;100.00
10145;BME280;5113;41.822;23.564;2022-11-15T03:07:09;-10953.94;;;0.71;100.00
10145;BME280;5113;41.822;23.564;2022-11-15T03:10:22;-10933.75;;;-0.03;100.00
10145;BME280;5113;41.822;23.564;2022-11-15T03:13:35;-10941.03;;;0.24;100.00
10145;BME280;5113;41.822;23.564;2022-11-15T03:16:47;-10939.34;;;0.18;100.00
10145;BME280;5113;41.822;23.564;2022-11-15T03:19:58;-10928.72;;;-0.21;100.00
10145;BME280;5113;41.822;23.564;2022-11-15T03:23:08;-10926.34;;;-0.29;100.00
10145;BME280;5113;41.822;23.564;2022-11-15T03:26:18;-10931.81;;;-0.10;100.00
10145;BME280;5113;41.822;23.564;2022-11-15T03:29:31;-10931.53;;;-0.11;100.00
10145;BME280;5113;41.822;23.564;2022-11-15T03:32:43;-10934.47;;;0.00;100.00
10145;BME280;5113;41.822;23.564;2022-11-15T03:35:52;-10927.31;;;-0.26;100.00
10145;BME280;5113;41.822;23.564;2022-11-15T03:39:02;-10921.44;;;-0.47;100.00
10145;BME280;5113;41.822;23.564;2022-11-15T03:42:17;-10935.16;;;0.03;100.00
10145;BME280;5113;41.822;23.564;2022-11-15T03:45:28;-10942.03;;;0.27;100.00
10145;BME280;5113;41.822;23.564;2022-11-15T03:48:42;-10948.88;;;0.52;100.00
10145;BME280;5113;41.822;23.564;2022-11-15T03:51:52;-10942.88;;;0.30;100.00
10145;BME280;5113;41.822;23.564;2022-11-15T03:55:01;-10939.34;;;0.18;100.00
10145;BME280;5113;41.822;23.564;2022-11-15T03:58:09;-10950.00;;;0.56;100.00
10145;BME280;5113;41.822;23.564;2022-11-15T04:01:15;-10952.38;;;0.65;100.00
10145;BME280;5113;41.822;23.564;2022-11-15T04:04:22;-10931.81;;;-0.10;100.00
10145;BME280;5113;41.822;23.564;2022-11-15T04:07:30;-10929.97;;;-0.16;100.00
10145;BME280;5113;41.822;23.564;2022-11-15T04:10:37;-10927.31;;;-0.26;100.00
10145;BME280;5113;41.822;23.564;2022-11-15T04:13:43;-10919.47;;;-0.54;100.00
10145;BME280;5113;41.822;23.564;2022-11-15T04:16:49;-10908.00;;;-0.96;100.00
10145;BME280;5113;41.822;23.564;2022-11-15T04:19:55;-10914.72;;;-0.72;100.00
10145;BME280;5113;41.822;23.564;2022-11-15T04:23:22;-10923.69;;;-0.39;100.00
10145;BME280;5113;41.822;23.564;2022-11-15T04:26:46;-10934.31;;;-0.01;100.00
10145;BME280;5113;41.822;23.564;2022-11-15T04:29:53;-10924.78;;;-0.35;100.00
10145;BME280;5113;41.822;23.564;2022-11-15T04:32:59;-10933.63;;;-0.03;100.00
10145;BME280;5113;41.822;23.564;2022-11-15T04:36:06;-10947.63;;;0.48;100.00
10145;BME280;5113;41.822;23.564;2022-11-15T04:39:32;-10939.09;;;0.17;100.00
10145;BME280;5113;41.822;23.564;2022-11-15T04:42:40;-10940.19;;;0.21;100.00
10145;BME280;5113;41.822;23.564;2022-11-15T04:45:46;-10948.47;;;0.51;100.00
10145;BME280;5113;41.822;23.564;2022-11-15T04:48:53;-10934.75;;;0.01;100.00
10145;BME280;5113;41.822;23.564;2022-11-15T04:52:03;-10945.38;;;0.40;100.00
10145;BME280;5113;41.822;23.564;2022-11-15T04:55:11;-10943.84;;;0.34;100.00
10145;BME280;5113;41.822;23.564;2022-11-15T04:58:17;-10928.72;;;-0.21;100.00
10145;BME280;5113;41.822;23.564;2022-11-15T05:01:24;-10928.03;;;-0.23;100.00
10145;BME280;5113;41.822;23.564;2022-11-15T05:04:30;-10930.97;;;-0.13;100.00
10145;BME280;5113;41.822;23.564;2022-11-15T05:07:36;-10914.44;;;-0.73;100.00
10145;BME280;5113;41.822;23.564;2022-11-15T05:10:44;-10907.84;;;-0.96;100.00
10145;BME280;5113;41.822;23.564;2022-11-15T05:13:50;-10898.75;;;-1.29;100.00
10145;BME280;5113;41.822;23.564;2022-11-15T05:16:57;-10899.31;;;-1.27;100.00
10145;BME280;5113;41.822;23.564;2022-11-15T05:20:04;-10899.47;;;-1.27;100.00
10145;BME280;5113;41.822;23.564;2022-11-15T05:23:10;-10914.72;;;-0.72;100.00
10145;BME280;5113;41.822;23.564;2022-11-15T05:26:18;-10896.78;;;-1.37;100.00
10145;BME280;5113;41.822;23.564;2022-11-15T05:29:25;-10907.56;;;-0.97;100.00
10145;BME280;5113;41.822;23.564;2022-11-15T05:32:31;-10928.16;;;-0.23;100.00
10145;BME280;5113;41.822;23.564;2022-11-15T05:35:40;-10942.72;;;0.30;100.00
10145;BME280;5113;41.822;23.564;2022-11-15T05:38:48;-10948.59;;;0.51;100.00
10145;BME280;5113;41.822;23.564;2022-11-15T05:42:00;-10955.63;;;0.77;100.00
10145;BME280;5113;41.822;23.564;2022-11-15T05:45:08;-10957.28;;;0.83;100.00
10145;BME280;5113;41.822;23.564;2022-11-15T05:48:16;-10972.00;;;1.36;100.00
10145;BME280;5113;41.822;23.564;2022-11-15T05:51:22;-10967.38;;;1.19;100.00
10145;BME280;5113;41.822;23.564;2022-11-15T05:54:30;-10960.78;;;0.95;100.00
10145;BME280;5113;41.822;23.564;2022-11-15T05:57:39;-10926.75;;;-0.28;100.00
10145;BME280;5113;41.822;23.564;2022-11-15T06:00:45;-10927.03;;;-0.27;100.00
10145;BME280;5113;41.822;23.564;2022-11-15T06:03:52;-10927.03;;;-0.27;100.00
10145;BME280;5113;41.822;23.564;2022-11-15T06:06:59;-10937.81;;;0.12;100.00
10145;BME280;5113;41.822;23.564;2022-11-15T06:10:06;-10928.44;;;-0.22;100.00
10145;BME280;5113;41.822;23.564;2022-11-15T06:13:15;-10926.63;;;-0.28;100.00
10145;BME280;5113;41.822;23.564;2022-11-15T06:16:21;-10941.03;;;0.24;100.00
10145;BME280;5113;41.822;23.564;2022-11-15T06:19:28;-10951.81;;;0.63;100.00
10145;BME280;5113;41.822;23.564;2022-11-15T06:22:37;-10950.84;;;0.59;100.00
10145;BME280;5113;41.822;23.564;2022-11-15T06:25:44;-10967.94;;;1.21;100.00
10145;BME280;5113;41.822;23.564;2022-11-15T06:28:51;-10985.03;;;1.83;100.00
10145;BME280;5113;41.822;23.564;2022-11-15T06:31:57;-10995.41;;;2.21;100.00
10145;BME280;5113;41.822;23.564;2022-11-15T06:35:05;-10992.06;;;2.09;100.00
10145;BME280;5113;41.822;23.564;2022-11-15T06:38:11;-10994.00;;;2.16;100.00
10145;BME280;5113;41.822;23.564;2022-11-15T06:41:17;-11005.22;;;2.56;100.00
10145;BME280;5113;41.822;23.564;2022-11-15T06:44:27;-11013.09;;;2.85;100.00
10145;BME280;5113;41.822;23.564;2022-11-15T06:47:33;-11010.69;;;2.76;100.00
10145;BME280;5113;41.822;23.564;2022-11-15T06:50:39;-11018.13;;;3.03;100.00
10145;BME280;5113;41.822;23.564;2022-11-15T06:53:45;-11027.37;;;3.37;100.00
10145;BME280;5113;41.822;23.564;2022-11-15T06:56:52;-11024.16;;;3.25;100.00
10145;BME280;5113;41.822;23.564;2022-11-15T06:59:59;-11031.31;;;3.51;100.00
10145;BME280;5113;41.822;23.564;2022-11-15T07:03:06;-11038.34;;;3.76;100.00
10145;BME280;5113;41.822;23.564;2022-11-15T07:06:13;-11036.09;;;3.68;100.00
10145;BME280;5113;41.822;23.564;2022-11-15T07:09:19;-11035.09;;;3.64;100.00
10145;BME280;5113;41.822;23.564;2022-11-15T07:12:25;-11029.63;;;3.45;100.00
10145;BME280;5113;41.822;23.564;2022-11-15T07:15:33;-11039.31;;;3.80;100.00
10145;BME280;5113;41.822;23.564;2022-11-15T07:18:40;-11047.72;;;4.10;100.00
10145;BME280;5113;41.822;23.564;2022-11-15T07:21:46;-11040.84;;;3.85;100.00
10145;BME280;5113;41.822;23.564;2022-11-15T07:24:53;-11046.88;;;4.07;100.00
10145;BME280;5113;41.822;23.564;2022-11-15T07:28:00;-11056.84;;;4.43;100.00
10145;BME280;5113;41.822;23.564;2022-11-15T07:31:08;-11068.63;;;4.86;100.00
10145;BME280;5113;41.822;23.564;2022-11-15T07:34:15;-11062.31;;;4.63;100.00
10145;BME280;5113;41.822;23.564;2022-11-15T07:37:21;-11074.53;;;5.07;100.00
10145;BME280;5113;41.822;23.564;2022-11-15T07:40:29;-11087.44;;;5.54;100.00
10145;BME280;5113;41.822;23.564;2022-11-15T07:43:36;-11086.47;;;5.50;100.00
10145;BME280;5113;41.822;23.564;2022-11-15T07:46:44;-11090.53;;;5.65;100.00
10145;BME280;5113;41.822;23.564;2022-11-15T07:49:50;-11090.25;;;5.64;100.00
10145;BME280;5113;41.822;23.564;2022-11-15T07:52:58;-11092.22;;;5.71;100.00
10145;BME280;5113;41.822;23.564;2022-11-15T07:56:06;-11091.94;;;5.70;100.00
10145;BME280;5113;41.822;23.564;2022-11-15T07:59:12;-11107.13;;;6.25;100.00
10145;BME280;5113;41.822;23.564;2022-11-15T08:02:20;-11103.59;;;6.12;100.00
10145;BME280;5113;41.822;23.564;2022-11-15T08:05:34;-11111.19;;;6.40;100.00
10145;BME280;5113;41.822;23.564;2022-11-15T08:08:41;-11116.53;;;6.59;100.00
10145;BME280;5113;41.822;23.564;2022-11-15T08:11:47;-11115.97;;;6.57;100.00
10145;BME280;5113;41.822;23.564;2022-11-15T08:14:54;-11133.66;;;7.21;100.00
10145;BME280;5113;41.822;23.564;2022-11-15T08:18:03;-11130.97;;;7.11;100.00
10145;BME280;5113;41.822;23.564;2022-11-15T08:21:12;-11136.03;;;7.29;100.00
10145;BME280;5113;41.822;23.564;2022-11-15T08:24:22;-11140.97;;;7.47;100.00
10145;BME280;5113;41.822;23.564;2022-11-15T08:27:28;-11156.28;;;8.03;98.35
10145;BME280;5113;41.822;23.564;2022-11-15T08:30:36;-11149.25;;;7.77;100.00
10145;BME280;5113;41.822;23.564;2022-11-15T08:33:47;-11148.25;;;7.74;100.00
10145;BME280;5113;41.822;23.564;2022-11-15T08:36:53;-11152.34;;;7.88;100.00
10145;BME280;5113;41.822;23.564;2022-11-15T08:40:00;-11166.41;;;8.39;100.00
10145;BME280;5113;41.822;23.564;2022-11-15T08:43:06;-11157.25;;;8.06;100.00
10145;BME280;5113;41.822;23.564;2022-11-15T08:46:13;-11169.50;;;8.50;100.00
10145;BME280;5113;41.822;23.564;2022-11-15T08:49:21;-11175.09;;;8.71;100.00
10145;BME280;5113;41.822;23.564;2022-11-15T08:52:27;-11168.37;;;8.46;94.95
10145;BME280;5113;41.822;23.564;2022-11-15T08:55:36;-11175.09;;;8.71;95.25
10145;BME280;5113;41.822;23.564;2022-11-15T08:58:43;-11181.00;;;8.92;96.09
10145;BME280;5113;41.822;23.564;2022-11-15T09:01:49;-11193.81;;;9.38;93.53
10145;BME280;5113;41.822;23.564;2022-11-15T09:04:56;-11196.06;;;9.46;91.76
10145;BME280;5113;41.822;23.564;2022-11-15T09:08:03;-11191.13;;;9.28;91.65
10145;BME280;5113;41.822;23.564;2022-11-15T09:11:30;-11193.81;;;9.38;92.20
10145;BME280;5113;41.822;23.564;2022-11-15T09:14:37;-11202.09;;;9.68;84.96
10145;BME280;5113;41.822;23.564;2022-11-15T09:17:43;-11212.09;;;10.04;85.91
10145;BME280;5113;41.822;23.564;2022-11-15T09:20:51;-11198.03;;;9.53;85.52
10145;BME280;5113;41.822;23.564;2022-11-15T09:24:01;-11209.41;;;9.94;84.27
10145;BME280;5113;41.822;23.564;2022-11-15T09:27:09;-11209.41;;;9.94;84.95
10145;BME280;5113;41.822;23.564;2022-11-15T09:30:15;-11227.69;;;10.61;79.70
10145;BME280;5113;41.822;23.564;2022-11-15T09:33:22;-11220.94;;;10.36;80.73
10145;BME280;5113;41.822;23.564;2022-11-15T09:36:29;-11226.84;;;10.57;78.32
10145;BME280;5113;41.822;23.564;2022-11-15T09:39:36;-11219.81;;;10.32;78.63
10145;BME280;5113;41.822;23.564;2022-11-15T09:42:55;-11233.19;;;10.80;76.31
10145;BME280;5113;41.822;23.564;2022-11-15T09:46:11;-11233.88;;;10.83;77.24
10145;BME280;5113;41.822;23.564;2022-11-15T09:49:21;-11237.69;;;10.97;76.46
10145;BME280;5113;41.822;23.564;2022-11-15T09:52:29;-11248.66;;;11.36;75.38
10145;BME280;5113;41.822;23.564;2022-11-15T09:55:43;-11263.72;;;11.90;73.21
10145;BME280;5113;41.822;23.564;2022-11-15T09:59:01;-11287.50;;;12.76;70.94
10145;BME280;5113;41.822;23.564;2022-11-15T10:02:21;-11289.63;;;12.84;70.64
10145;BME280;5113;41.822;23.564;2022-11-15T10:05:30;-11287.22;;;12.75;69.57
10145;BME280;5113;41.822;23.564;2022-11-15T10:08:48;-11270.75;;;12.16;67.92
10145;BME280;5113;41.822;23.564;2022-11-15T10:11:56;-11295.25;;;13.04;67.53
10145;BME280;5113;41.822;23.564;2022-11-15T10:15:06;-11299.19;;;13.18;64.55
10145;BME280;5113;41.822;23.564;2022-11-15T10:18:17;-11309.31;;;13.55;63.93
10145;BME280;5113;41.822;23.564;2022-11-15T10:21:34;-11305.25;;;13.40;64.07
10145;BME280;5113;41.822;23.564;2022-11-15T10:24:46;-11313.97;;;13.72;60.30
10145;BME280;5113;41.822;23.564;2022-11-15T10:27:55;-11320.59;;;13.96;61.48
10145;BME280;5113;41.822;23.564;2022-11-15T10:31:02;-11313.56;;;13.70;59.38
10145;BME280;5113;41.822;23.564;2022-11-15T10:34:12;-11333.13;;;14.41;57.76
10145;BME280;5113;41.822;23.564;2022-11-15T10:37:28;-11314.69;;;13.74;59.67
10145;BME280;5113;41.822;23.564;2022-11-15T10:40:37;-11332.13;;;14.37;57.85
10145;BME280;5113;41.822;23.564;2022-11-15T10:43:44;-11322.56;;;14.03;59.44
10145;BME280;5113;41.822;23.564;2022-11-15T10:47:25;-11331.84;;;14.36;56.91
10145;BME280;5113;41.822;23.564;2022-11-15T10:50:32;-11339.31;;;14.63;55.15
10145;BME280;5113;41.822;23.564;2022-11-15T10:53:43;-11323.41;;;14.06;56.42
10145;BME280;5113;41.822;23.564;2022-11-15T10:56:54;-11321.72;;;14.00;56.83
10145;BME280;5113;41.822;23.564;2022-11-15T11:00:05;-11338.75;;;14.61;58.28
10145;BME280;5113;41.822;23.564;2022-11-15T11:03:27;-11355.22;;;15.20;55.64
10145;BME280;5113;41.822;23.564;2022-11-15T11:06:46;-11360.88;;;15.41;54.49
10145;BME280;5113;41.822;23.564;2022-11-15T11:09:58;-11343.69;;;14.79;56.56
10145;BME280;5113;41.822;23.564;2022-11-15T11:13:22;-11362.00;;;15.45;54.78
10145;BME280;5113;41.822;23.564;2022-11-15T11:16:43;-11368.34;;;15.68;55.64
10145;BME280;5113;41.822;23.564;2022-11-15T11:20:02;-11362.84;;;15.48;53.49
10145;BME280;5113;41.822;23.564;2022-11-15T11:23:31;-11365.94;;;15.59;53.11
10145;BME280;5113;41.822;23.564;2022-11-15T11:26:44;-11358.63;;;15.33;52.84
10145;BME280;5113;41.822;23.564;2022-11-15T11:30:08;-11376.38;;;15.97;52.77
10145;BME280;5113;41.822;23.564;2022-11-15T11:33:17;-11387.91;;;16.38;51.82
10145;BME280;5113;41.822;23.564;2022-11-15T11:36:27;-11384.81;;;16.27;51.05
10145;BME280;5113;41.822;23.564;2022-11-15T11:39:44;-11387.06;;;16.35;51.21
10145;BME280;5113;41.822;23.564;2022-11-15T11:42:59;-11374.41;;;15.90;50.71
10145;BME280;5113;41.822;23.564;2022-11-15T11:46:24;-11383.41;;;16.22;50.62
10145;BME280;5113;41.822;23.564;2022-11-15T11:49:41;-11385.81;;;16.31;50.76
10145;BME280;5113;41.822;23.564;2022-11-15T11:52:56;-11393.28;;;16.58;50.61
10145;BME280;5113;41.822;23.564;2022-11-15T11:56:16;-11396.09;;;16.68;49.92
10145;BME280;5113;41.822;23.564;2022-11-15T11:59:32;-11398.34;;;16.76;51.85
10145;BME280;5113;41.822;23.564;2022-11-15T12:02:46;-11404.41;;;16.98;50.61
10145;BME280;5113;41.822;23.564;2022-11-15T12:05:56;-11400.75;;;16.84;50.39
10145;BME280;5113;41.822;23.564;2022-11-15T12:09:12;-11404.00;;;16.96;50.71
10145;BME280;5113;41.822;23.564;2022-11-15T12:12:25;-11405.97;;;17.03;49.65
10145;BME280;5113;41.822;23.564;2022-11-15T12:15:39;-11401.31;;;16.87;49.72
10145;BME280;5113;41.822;23.564;2022-11-15T12:19:03;-11403.72;;;16.95;49.69
10145;BME280;5113;41.822;23.564;2022-11-15T12:22:15;-11412.16;;;17.26;51.06
10145;BME280;5113;41.822;23.564;2022-11-15T12:25:29;-11419.22;;;17.51;50.23
10145;BME280;5113;41.822;23.564;2022-11-15T12:28:40;-11434.16;;;18.05;50.07
10145;BME280;5113;41.822;23.564;2022-11-15T12:32:18;-11415.12;;;17.36;49.54
10145;BME280;5113;41.822;23.564;2022-11-15T12:35:34;-11416.66;;;17.42;49.79
10145;BME280;5113;41.822;23.564;2022-11-15T12:38:54;-11432.19;;;17.98;49.19
10145;BME280;5113;41.822;23.564;2022-11-15T12:45:41;-11435.13;;;18.08;48.54
10145;BME280;5113;41.822;23.564;2022-11-15T12:48:55;-11440.91;;;18.29;47.02
10145;BME280;5113;41.822;23.564;2022-11-15T12:52:08;-11433.59;;;18.03;49.07
10145;BME280;5113;41.822;23.564;2022-11-15T12:55:31;-11450.22;;;18.63;48.61
10145;BME280;5113;41.822;23.564;2022-11-15T12:58:42;-11445.28;;;18.45;47.34
10145;BME280;5113;41.822;23.564;2022-11-15T13:02:00;-11461.78;;;19.04;46.37
10145;BME280;5113;41.822;23.564;2022-11-15T13:08:49;-11439.66;;;18.25;49.17
10145;BME280;5113;41.822;23.564;2022-11-15T13:11:57;-11435.84;;;18.11;47.23
10145;BME280;5113;41.822;23.564;2022-11-15T13:15:38;-11433.03;;;18.01;47.56
10145;BME280;5113;41.822;23.564;2022-11-15T13:18:53;-11413.00;;;17.29;50.85
10145;BME280;5113;41.822;23.564;2022-11-15T13:21:59;-11439.78;;;18.25;47.35
10145;BME280;5113;41.822;23.564;2022-11-15T13:29:18;-11420.63;;;17.56;46.88
10145;BME280;5113;41.822;23.564;2022-11-15T13:32:25;-11420.91;;;17.57;45.78
10145;BME280;5113;41.822;23.564;2022-11-15T13:35:33;-11398.91;;;16.78;47.71
10145;BME280;5113;41.822;23.564;2022-11-15T13:38:43;-11393.28;;;16.58;48.17
10145;BME280;5113;41.822;23.564;2022-11-15T13:41:50;-11379.31;;;16.07;49.00
10145;BME280;5113;41.822;23.564;2022-11-15T13:45:02;-11367.34;;;15.64;50.46
10145;BME280;5113;41.822;23.564;2022-11-15T13:48:09;-11361.16;;;15.42;53.89
10145;BME280;5113;41.822;23.564;2022-11-15T13:51:21;-11346.78;;;14.90;54.74
10145;BME280;5113;41.822;23.564;2022-11-15T13:54:33;-11338.34;;;14.60;56.96
10145;BME280;5113;41.822;23.564;2022-11-15T13:57:42;-11313.56;;;13.70;64.45
10145;BME280;5113;41.822;23.564;2022-11-15T14:00:59;-11312.72;;;13.67;63.27
10145;BME280;5113;41.822;23.564;2022-11-15T14:04:10;-11301.03;;;13.25;63.87
10145;BME280;5113;41.822;23.564;2022-11-15T14:07:19;-11291.59;;;12.91;66.23
10145;BME280;5113;41.822;23.564;2022-11-15T14:10:28;-11283.41;;;12.62;67.61
10145;BME280;5113;41.822;23.564;2022-11-15T14:13:35;-11278.63;;;12.44;69.73
10145;BME280;5113;41.822;23.564;2022-11-15T14:16:45;-11270.47;;;12.15;72.09
10145;BME280;5113;41.822;23.564;2022-11-15T14:19:51;-11270.63;;;12.15;72.16
10145;BME280;5113;41.822;23.564;2022-11-15T14:22:59;-11266.13;;;11.99;72.66
10145;BME280;5113;41.822;23.564;2022-11-15T14:26:10;-11258.50;;;11.72;75.08
10145;BME280;5113;41.822;23.564;2022-11-15T14:29:24;-11249.78;;;11.40;80.64
10145;BME280;5113;41.822;23.564;2022-11-15T14:32:42;-11252.19;;;11.49;78.03
10145;BME280;5113;41.822;23.564;2022-11-15T14:35:49;-11248.53;;;11.36;79.15
10145;BME280;5113;41.822;23.564;2022-11-15T14:38:56;-11237.00;;;10.94;85.27
10145;BME280;5113;41.822;23.564;2022-11-15T14:42:05;-11234.75;;;10.86;87.08
10145;BME280;5113;41.822;23.564;2022-11-15T14:45:16;-11235.16;;;10.87;85.14
10145;BME280;5113;41.822;23.564;2022-11-15T14:48:24;-11231.34;;;10.74;84.04
10145;BME280;5113;41.822;23.564;2022-11-15T14:51:31;-11227.84;;;10.61;85.60
10145;BME280;5113;41.822;23.564;2022-11-15T14:54:38;-11214.19;;;10.12;92.30
10145;BME280;5113;41.822;23.564;2022-11-15T14:57:44;-11232.19;;;10.77;87.23
10145;BME280;5113;41.822;23.564;2022-11-15T15:01:12;-11215.88;;;10.18;92.37
10145;BME280;5113;41.822;23.564;2022-11-15T15:04:19;-11219.25;;;10.30;89.64
10145;BME280;5113;41.822;23.564;2022-11-15T15:07:26;-11206.03;;;9.82;93.79
10145;BME280;5113;41.822;23.564;2022-11-15T15:10:34;-11208.84;;;9.92;92.12
10145;BME280;5113;41.822;23.564;2022-11-15T15:13:55;-11210.25;;;9.98;93.03
10145;BME280;5113;41.822;23.564;2022-11-15T15:17:03;-11207.72;;;9.88;92.62
10145;BME280;5113;41.822;23.564;2022-11-15T15:20:11;-11201.97;;;9.68;95.19
10145;BME280;5113;41.822;23.564;2022-11-15T15:23:31;-11199.44;;;9.58;96.66
10145;BME280;5113;41.822;23.564;2022-11-15T15:26:37;-11198.72;;;9.56;97.40
10145;BME280;5113;41.822;23.564;2022-11-15T15:29:44;-11193.38;;;9.37;98.68
10145;BME280;5113;41.822;23.564;2022-11-15T15:32:50;-11191.13;;;9.28;98.64
10145;BME280;5113;41.822;23.564;2022-11-15T15:35:58;-11185.09;;;9.07;100.00
10145;BME280;5113;41.822;23.564;2022-11-15T15:39:16;-11181.72;;;8.94;100.00
10145;BME280;5113;41.822;23.564;2022-11-15T15:42:22;-11183.41;;;9.01;100.00
10145;BME280;5113;41.822;23.564;2022-11-15T15:45:37;-11177.91;;;8.81;100.00
10145;BME280;5113;41.822;23.564;2022-11-15T15:48:45;-11176.78;;;8.77;100.00
10145;BME280;5113;41.822;23.564;2022-11-15T15:51:52;-11171.19;;;8.56;100.00
10145;BME280;5113;41.822;23.564;2022-11-15T15:54:59;-11175.81;;;8.73;100.00
10145;BME280;5113;41.822;23.564;2022-11-15T15:58:05;-11182.13;;;8.96;100.00
10145;BME280;5113;41.822;23.564;2022-11-15T16:01:13;-11169.06;;;8.49;100.00
10145;BME280;5113;41.822;23.564;2022-11-15T16:04:19;-11170.91;;;8.55;100.00
10145;BME280;5113;41.822;23.564;2022-11-15T16:07:27;-11171.88;;;8.59;100.00
10145;BME280;5113;41.822;23.564;2022-11-15T16:10:34;-11165.41;;;8.36;100.00
10145;BME280;5113;41.822;23.564;2022-11-15T16:13:41;-11176.22;;;8.75;100.00
10145;BME280;5113;41.822;23.564;2022-11-15T16:16:47;-11172.44;;;8.61;100.00
10145;BME280;5113;41.822;23.564;2022-11-15T16:19:54;-11165.97;;;8.38;100.00
10145;BME280;5113;41.822;23.564;2022-11-15T16:23:03;-11154.88;;;7.98;100.00
10145;BME280;5113;41.822;23.564;2022-11-15T16:26:19;-11161.34;;;8.21;100.00
10145;BME280;5113;41.822;23.564;2022-11-15T16:29:26;-11158.66;;;8.11;100.00
10145;BME280;5113;41.822;23.564;2022-11-15T16:32:33;-11155.84;;;8.01;100.00
10145;BME280;5113;41.822;23.564;2022-11-15T16:35:39;-11161.19;;;8.20;100.00
10145;BME280;5113;41.822;23.564;2022-11-15T16:38:47;-11148.97;;;7.76;100.00
10145;BME280;5113;41.822;23.564;2022-11-15T16:41:54;-11151.63;;;7.86;100.00
10145;BME280;5113;41.822;23.564;2022-11-15T16:45:00;-11149.53;;;7.78;100.00